createdAt,value
2016-10-27T03:00:40.160Z,17.95
2016-10-27T03:01:05.699Z,17.89
2016-10-27T03:01:31.267Z,18
2016-10-27T03:01:56.823Z,18.03
2016-10-27T03:02:22.401Z,18.03
2016-10-27T03:02:48.386Z,18.03
2016-10-27T03:03:13.934Z,17.99
2016-10-27T03:03:40.166Z,18
2016-10-27T03:04:05.724Z,18.06
2016-10-27T03:04:31.285Z,17.95
2016-10-27T03:04:57.563Z,17.99
2016-10-27T03:05:23.311Z,18.02
2016-10-27T03:05:49.333Z,17.99
2016-10-27T03:06:14.893Z,18.06
2016-10-27T03:06:41.152Z,18.02
2016-10-27T03:07:06.707Z,18.03
2016-10-27T03:07:32.290Z,18.02
2016-10-27T03:07:58.464Z,18.04
2016-10-27T03:08:23.995Z,18
2016-10-27T03:08:50.397Z,18.07
2016-10-27T03:09:15.954Z,18.1
2016-10-27T03:09:41.514Z,18.06
2016-10-27T03:10:07.767Z,18.03
2016-10-27T03:11:11.017Z,18.03
2016-10-27T03:11:36.613Z,18.02
2016-10-27T03:12:02.160Z,18.07
2016-10-27T03:12:27.773Z,18.04
2016-10-27T03:12:53.319Z,18.03
2016-10-27T03:13:18.873Z,18.09
2016-10-27T03:13:44.534Z,18.06
2016-10-27T03:14:10.097Z,18.02
2016-10-27T03:14:35.662Z,18.03
2016-10-27T03:15:01.228Z,18.02
2016-10-27T03:15:26.764Z,18.03
2016-10-27T03:15:52.311Z,18.02
2016-10-27T03:16:17.860Z,18.04
2016-10-27T03:16:43.433Z,18.06
2016-10-27T03:17:08.983Z,18.02
2016-10-27T03:17:34.550Z,18.03
2016-10-27T03:18:00.109Z,18
2016-10-27T03:18:26.469Z,18.04
2016-10-27T03:18:52.074Z,18.03
2016-10-27T03:19:17.608Z,18.07
2016-10-27T03:19:43.166Z,18.02
2016-10-27T03:20:08.744Z,18.03
2016-10-27T03:20:34.406Z,18.03
2016-10-27T03:20:59.955Z,18.07
2016-10-27T03:21:25.597Z,18.02
2016-10-27T03:21:51.263Z,18.03
2016-10-27T03:22:16.815Z,18.03
2016-10-27T03:22:42.509Z,18
2016-10-27T03:23:08.076Z,18.06
2016-10-27T03:23:33.638Z,18.06
2016-10-27T03:23:59.274Z,18.09
2016-10-27T03:24:24.829Z,18.06
2016-10-27T03:24:50.393Z,18.03
2016-10-27T03:25:15.946Z,18.04
2016-10-27T03:26:14.049Z,18.07
2016-10-27T03:26:39.804Z,18.09
2016-10-27T03:27:05.347Z,18.02
2016-10-27T03:27:31.108Z,18.03
2016-10-27T03:27:56.689Z,18.04
2016-10-27T03:28:22.236Z,18.12
2016-10-27T03:28:47.938Z,18.19
2016-10-27T03:29:13.507Z,18.17
2016-10-27T03:29:39.057Z,18.13
2016-10-27T03:30:04.711Z,18.18
2016-10-27T03:30:30.284Z,18.19
2016-10-27T03:30:55.844Z,18.22
2016-10-27T03:32:04.160Z,18.17
2016-10-27T03:32:29.692Z,18.18
2016-10-27T03:32:55.257Z,18.13
2016-10-27T03:33:20.828Z,18.18
2016-10-27T03:34:13.829Z,18.17
2016-10-27T03:34:39.514Z,18.18
2016-10-27T03:35:05.149Z,18.21
2016-10-27T03:35:30.723Z,18.21
2016-10-27T03:35:56.341Z,18.29
2016-10-27T03:36:21.917Z,18.25
2016-10-27T03:36:47.480Z,18.31
2016-10-27T03:37:13.040Z,18.24
2016-10-27T03:37:38.797Z,18.21
2016-10-27T03:38:04.350Z,18.28
2016-10-27T03:38:29.928Z,18.25
2016-10-27T03:38:55.553Z,18.22
2016-10-27T03:39:21.158Z,18.33
2016-10-27T03:39:46.707Z,18.29
2016-10-27T03:40:12.248Z,18.27
2016-10-27T03:40:37.818Z,18.33
2016-10-27T03:41:30.834Z,18.34
2016-10-27T03:41:56.405Z,18.33
2016-10-27T03:42:22.017Z,18.31
2016-10-27T03:44:37.906Z,18.33
2016-10-27T03:45:03.470Z,18.4
2016-10-27T03:46:11.785Z,18.33
2016-10-27T03:46:37.358Z,18.28
2016-10-27T03:47:02.918Z,18.4
2016-10-27T03:47:28.460Z,18.37
2016-10-27T03:47:54.017Z,18.36
2016-10-27T03:48:19.774Z,18.31
2016-10-27T03:48:45.334Z,18.39
2016-10-27T03:49:10.903Z,18.39
2016-10-27T03:50:14.235Z,18.36
2016-10-27T03:50:39.794Z,18.34
2016-10-27T03:51:05.333Z,18.4
2016-10-27T03:51:30.913Z,18.34
2016-10-27T03:52:18.747Z,18.37
2016-10-27T03:52:44.322Z,18.34
2016-10-27T03:53:10.032Z,18.44
2016-10-27T03:53:35.731Z,18.39
2016-10-27T03:54:01.431Z,18.43
2016-10-27T03:54:26.992Z,18.43
2016-10-27T03:54:52.557Z,18.33
2016-10-27T03:55:18.126Z,18.43
2016-10-27T03:55:43.694Z,18.42
2016-10-27T03:56:09.310Z,18.36
2016-10-27T03:56:34.965Z,18.42
2016-10-27T03:57:00.524Z,18.4
2016-10-27T03:57:26.195Z,18.44
2016-10-27T03:57:51.841Z,18.44
2016-10-27T03:58:17.419Z,18.42
2016-10-27T03:58:42.972Z,18.46
2016-10-27T03:59:08.615Z,18.4
2016-10-27T03:59:34.180Z,18.39
2016-10-27T03:59:59.745Z,18.4
2016-10-27T04:00:25.297Z,18.46
2016-10-27T04:00:50.960Z,18.42
2016-10-27T04:01:16.516Z,18.43
2016-10-27T04:01:42.096Z,18.43
2016-10-27T04:02:07.650Z,18.54
2016-10-27T04:02:33.189Z,18.44
2016-10-27T04:02:58.746Z,18.42
2016-10-27T04:03:24.287Z,18.43
2016-10-27T04:03:49.846Z,18.46
2016-10-27T04:04:15.474Z,18.42
2016-10-27T04:04:41.049Z,18.42
2016-10-27T04:05:06.613Z,18.39
2016-10-27T04:05:32.211Z,18.44
2016-10-27T04:05:57.873Z,18.39
2016-10-27T04:06:23.490Z,18.4
2016-10-27T04:06:49.127Z,18.46
2016-10-27T04:07:14.710Z,18.42
2016-10-27T04:07:40.280Z,18.44
2016-10-27T04:08:05.851Z,18.4
2016-10-27T04:08:31.490Z,18.47
2016-10-27T04:08:57.062Z,18.44
2016-10-27T04:09:22.632Z,18.47
2016-10-27T04:09:48.192Z,18.44
2016-10-27T04:10:13.751Z,18.49
2016-10-27T04:11:22.365Z,18.58
2016-10-27T04:11:47.944Z,18.52
2016-10-27T04:12:13.531Z,18.55
2016-10-27T04:12:39.093Z,18.49
2016-10-27T04:13:04.652Z,18.55
2016-10-27T04:13:30.223Z,18.5
2016-10-27T04:13:55.853Z,18.52
2016-10-27T04:14:21.424Z,18.46
2016-10-27T04:14:46.989Z,18.5
2016-10-27T04:15:50.312Z,18.5
2016-10-27T04:16:15.886Z,18.54
2016-10-27T04:16:41.445Z,18.55
2016-10-27T04:17:07.002Z,18.57
2016-10-27T04:17:32.561Z,18.58
2016-10-27T04:17:58.127Z,18.52
2016-10-27T04:18:23.687Z,18.57
2016-10-27T04:18:49.315Z,18.5
2016-10-27T04:19:14.865Z,18.58
2016-10-27T04:19:40.413Z,18.5
2016-10-27T04:20:06.023Z,18.46
2016-10-27T04:20:31.583Z,18.49
2016-10-27T04:20:57.140Z,18.49
2016-10-27T04:21:22.732Z,18.49
2016-10-27T04:21:48.297Z,18.5
2016-10-27T04:22:13.849Z,18.58
2016-10-27T04:23:17.084Z,18.52
2016-10-27T04:23:42.768Z,18.55
2016-10-27T04:24:08.327Z,18.52
2016-10-27T04:24:33.879Z,18.55
2016-10-27T04:24:59.549Z,18.57
2016-10-27T04:25:25.103Z,18.54
2016-10-27T04:25:50.749Z,18.52
2016-10-27T04:26:16.292Z,18.61
2016-10-27T04:26:41.842Z,18.61
2016-10-27T04:27:07.400Z,18.5
2016-10-27T04:27:32.966Z,18.58
2016-10-27T04:27:58.530Z,18.54
2016-10-27T04:28:24.126Z,18.58
2016-10-27T04:28:49.738Z,18.58
2016-10-27T04:29:15.299Z,18.5
2016-10-27T04:29:40.872Z,18.58
2016-10-27T04:30:06.433Z,18.54
2016-10-27T04:30:32.041Z,18.64
2016-10-27T04:30:57.614Z,18.57
2016-10-27T04:31:23.184Z,18.59
2016-10-27T04:31:48.738Z,18.57
2016-10-27T04:32:14.309Z,18.58
2016-10-27T04:32:39.869Z,18.5
2016-10-27T04:33:05.456Z,18.58
2016-10-27T04:33:31.017Z,18.59
2016-10-27T04:33:56.622Z,18.62
2016-10-27T04:34:22.196Z,18.62
2016-10-27T04:34:47.768Z,18.58
2016-10-27T04:35:13.324Z,18.62
2016-10-27T04:35:38.886Z,18.55
2016-10-27T04:36:04.446Z,18.58
2016-10-27T04:36:30.078Z,18.58
2016-10-27T04:36:55.628Z,18.58
2016-10-27T04:37:21.196Z,18.58
2016-10-27T04:37:46.772Z,18.61
2016-10-27T04:38:12.337Z,18.65
2016-10-27T04:38:37.908Z,18.58
2016-10-27T04:39:03.480Z,18.58
2016-10-27T04:39:29.044Z,18.57
2016-10-27T04:39:54.650Z,18.61
2016-10-27T04:40:20.222Z,18.5
2016-10-27T04:40:45.778Z,18.59
2016-10-27T04:41:11.405Z,18.57
2016-10-27T04:41:36.967Z,18.54
2016-10-27T04:42:02.529Z,18.61
2016-10-27T04:42:28.097Z,18.55
2016-10-27T04:42:53.671Z,18.58
2016-10-27T04:43:19.246Z,18.64
2016-10-27T04:43:44.834Z,18.49
2016-10-27T04:44:10.410Z,18.65
2016-10-27T04:44:35.980Z,18.58
2016-10-27T04:45:01.629Z,18.58
2016-10-27T04:45:27.194Z,18.57
2016-10-27T04:45:52.774Z,18.65
2016-10-27T04:46:18.326Z,18.68
2016-10-27T04:46:43.914Z,18.58
2016-10-27T04:47:09.472Z,18.62
2016-10-27T04:47:35.094Z,18.58
2016-10-27T04:48:00.670Z,18.59
2016-10-27T04:48:26.232Z,18.61
2016-10-27T04:48:51.824Z,18.65
2016-10-27T04:49:17.382Z,18.57
2016-10-27T04:49:42.949Z,18.68
2016-10-27T04:50:08.514Z,18.58
2016-10-27T04:50:34.070Z,18.65
2016-10-27T04:50:59.628Z,18.67
2016-10-27T04:51:25.200Z,18.55
2016-10-27T04:51:50.779Z,18.59
2016-10-27T04:52:16.337Z,18.67
2016-10-27T04:52:41.928Z,18.64
2016-10-27T04:53:07.491Z,18.61
2016-10-27T04:53:33.071Z,18.65
2016-10-27T04:53:58.731Z,18.62
2016-10-27T04:54:24.384Z,18.58
2016-10-27T04:54:49.951Z,18.65
2016-10-27T04:55:15.541Z,18.58
2016-10-27T04:55:41.170Z,18.64
2016-10-27T04:56:06.742Z,18.68
2016-10-27T04:56:32.359Z,18.68
2016-10-27T04:56:57.960Z,18.62
2016-10-27T04:57:23.546Z,18.57
2016-10-27T04:57:49.114Z,18.59
2016-10-27T04:58:14.812Z,18.57
2016-10-27T04:58:40.378Z,18.62
2016-10-27T04:59:05.952Z,18.57
2016-10-27T04:59:31.589Z,18.68
2016-10-27T04:59:57.151Z,18.57
2016-10-27T05:00:22.723Z,18.62
2016-10-27T05:00:48.387Z,18.57
2016-10-27T05:01:13.994Z,18.73
2016-10-27T05:01:39.552Z,18.62
2016-10-27T05:02:05.128Z,18.57
2016-10-27T05:02:30.784Z,18.67
2016-10-27T05:02:56.343Z,18.62
2016-10-27T05:03:21.902Z,18.61
2016-10-27T05:03:47.530Z,18.58
2016-10-27T05:04:13.197Z,18.58
2016-10-27T05:04:38.757Z,18.57
2016-10-27T05:05:04.315Z,18.59
2016-10-27T05:05:30.036Z,18.61
2016-10-27T05:06:17.910Z,18.65
2016-10-27T05:06:43.468Z,18.62
2016-10-27T05:07:09.018Z,18.61
2016-10-27T05:07:34.618Z,18.65
2016-10-27T05:08:00.177Z,18.67
2016-10-27T05:08:25.746Z,18.58
2016-10-27T05:08:51.309Z,18.68
2016-10-27T05:09:16.861Z,18.58
2016-10-27T05:09:42.432Z,18.67
2016-10-27T05:10:08.009Z,18.67
2016-10-27T05:10:33.552Z,18.61
2016-10-27T05:10:59.124Z,18.65
2016-10-27T05:11:24.800Z,18.61
2016-10-27T05:11:50.345Z,18.64
2016-10-27T05:12:15.916Z,18.59
2016-10-27T05:12:41.467Z,18.73
2016-10-27T05:13:07.033Z,18.57
2016-10-27T05:13:32.592Z,18.61
2016-10-27T05:13:58.169Z,18.55
2016-10-27T05:14:23.720Z,18.59
2016-10-27T05:14:49.270Z,18.64
2016-10-27T05:15:14.865Z,18.57
2016-10-27T05:15:40.433Z,18.61
2016-10-27T05:16:06.012Z,18.64
2016-10-27T05:16:31.570Z,18.62
2016-10-27T05:16:57.143Z,18.59
2016-10-27T05:17:22.745Z,18.61
2016-10-27T05:17:48.298Z,18.61
2016-10-27T05:18:13.849Z,18.59
2016-10-27T05:18:39.407Z,18.61
2016-10-27T05:19:05.113Z,18.62
2016-10-27T05:19:30.687Z,18.57
2016-10-27T05:19:56.248Z,18.55
2016-10-27T05:20:21.822Z,18.58
2016-10-27T05:20:47.494Z,18.59
2016-10-27T05:21:13.073Z,18.55
2016-10-27T05:21:38.676Z,18.67
2016-10-27T05:22:04.251Z,18.58
2016-10-27T05:22:29.814Z,18.61
2016-10-27T05:22:55.439Z,18.58
2016-10-27T05:23:21.053Z,18.57
2016-10-27T05:23:46.636Z,18.61
2016-10-27T05:24:12.178Z,18.57
2016-10-27T05:24:37.754Z,18.61
2016-10-27T05:25:03.325Z,18.61
2016-10-27T05:25:28.899Z,18.62
2016-10-27T05:25:54.448Z,18.61
2016-10-27T05:26:20.028Z,18.62
2016-10-27T05:26:45.675Z,18.57
2016-10-27T05:27:11.250Z,18.64
2016-10-27T05:27:36.829Z,18.62
2016-10-27T05:28:02.397Z,18.61
2016-10-27T05:28:27.966Z,18.67
2016-10-27T05:28:53.522Z,18.67
2016-10-27T05:29:19.081Z,18.62
2016-10-27T05:29:44.674Z,18.62
2016-10-27T05:30:10.225Z,18.67
2016-10-27T05:30:35.968Z,18.61
2016-10-27T05:31:26.043Z,18.61
2016-10-27T05:33:39.373Z,18.59
2016-10-27T05:34:04.933Z,18.68
2016-10-27T05:34:30.470Z,18.68
2016-10-27T05:34:56.224Z,18.68
2016-10-27T05:35:21.781Z,18.59
2016-10-27T05:35:47.407Z,18.59
2016-10-27T05:36:12.969Z,18.61
2016-10-27T05:36:38.529Z,18.58
2016-10-27T05:37:04.081Z,18.61
2016-10-27T05:37:29.635Z,18.64
2016-10-27T05:37:55.181Z,18.61
2016-10-27T05:38:20.729Z,18.61
2016-10-27T05:39:25.481Z,18.68
2016-10-27T05:41:39.476Z,18.61
2016-10-27T05:42:05.033Z,18.67
2016-10-27T05:42:30.595Z,18.59
2016-10-27T05:42:56.163Z,18.68
2016-10-27T05:43:21.731Z,18.73
2016-10-27T05:43:47.277Z,18.57
2016-10-27T05:44:12.963Z,18.62
2016-10-27T05:44:38.561Z,18.61
2016-10-27T05:45:04.090Z,18.58
2016-10-27T05:45:29.742Z,18.55
2016-10-27T05:45:55.319Z,18.61
2016-10-27T05:46:20.906Z,18.59
2016-10-27T05:46:46.475Z,18.67
2016-10-27T05:47:12.142Z,18.67
2016-10-27T05:47:37.797Z,18.68
2016-10-27T05:48:03.368Z,18.62
2016-10-27T05:48:28.926Z,18.68
2016-10-27T05:48:54.514Z,18.61
2016-10-27T05:49:20.072Z,18.67
2016-10-27T05:49:45.650Z,18.62
2016-10-27T05:50:11.217Z,18.61
2016-10-27T05:50:36.839Z,18.67
2016-10-27T05:51:02.533Z,18.59
2016-10-27T05:51:28.085Z,18.62
2016-10-27T05:51:53.642Z,18.61
2016-10-27T05:52:19.209Z,18.68
2016-10-27T05:52:44.926Z,18.67
2016-10-27T05:53:10.494Z,18.67
2016-10-27T05:53:36.232Z,18.67
2016-10-27T05:54:01.797Z,18.72
2016-10-27T05:54:27.370Z,18.65
2016-10-27T05:54:52.933Z,18.65
2016-10-27T05:55:18.550Z,18.67
2016-10-27T05:55:44.130Z,18.64
2016-10-27T05:56:09.695Z,18.68
2016-10-27T05:56:35.361Z,18.62
2016-10-27T05:57:00.977Z,18.7
2016-10-27T05:57:26.552Z,18.68
2016-10-27T05:57:52.143Z,18.67
2016-10-27T05:58:18.384Z,18.61
2016-10-27T05:58:44.002Z,18.62
2016-10-27T05:59:09.582Z,18.61
2016-10-27T05:59:35.151Z,18.7
2016-10-27T06:00:00.711Z,18.65
2016-10-27T06:00:26.328Z,18.68
2016-10-27T06:01:14.189Z,18.65
2016-10-27T06:01:39.789Z,18.67
2016-10-27T06:02:05.351Z,18.64
2016-10-27T06:02:30.914Z,18.61
2016-10-27T06:02:56.462Z,18.64
2016-10-27T06:03:22.033Z,18.68
2016-10-27T06:03:47.588Z,18.61
2016-10-27T06:04:13.148Z,18.7
2016-10-27T06:04:38.792Z,18.68
2016-10-27T06:05:04.322Z,18.7
2016-10-27T06:05:29.898Z,18.62
2016-10-27T06:05:55.477Z,18.61
2016-10-27T06:06:21.042Z,18.67
2016-10-27T06:06:46.623Z,18.64
2016-10-27T06:07:12.240Z,18.64
2016-10-27T06:07:37.816Z,18.61
2016-10-27T06:08:03.380Z,18.62
2016-10-27T06:08:29.001Z,18.59
2016-10-27T06:08:54.551Z,18.58
2016-10-27T06:09:20.132Z,18.68
2016-10-27T06:09:45.682Z,18.68
2016-10-27T06:10:11.248Z,18.64
2016-10-27T06:10:36.831Z,18.64
2016-10-27T06:11:02.408Z,18.62
2016-10-27T06:11:27.951Z,18.61
2016-10-27T06:11:53.591Z,18.67
2016-10-27T06:12:19.200Z,18.67
2016-10-27T06:12:44.766Z,18.61
2016-10-27T06:13:10.329Z,18.68
2016-10-27T06:13:35.898Z,18.68
2016-10-27T06:14:01.476Z,18.64
2016-10-27T06:14:27.037Z,18.64
2016-10-27T06:14:52.676Z,18.64
2016-10-27T06:15:18.240Z,18.65
2016-10-27T06:15:43.794Z,18.68
2016-10-27T06:16:09.359Z,18.7
2016-10-27T06:16:34.918Z,18.68
2016-10-27T06:17:00.597Z,18.64
2016-10-27T06:17:26.175Z,18.68
2016-10-27T06:17:51.751Z,18.59
2016-10-27T06:18:17.454Z,18.64
2016-10-27T06:18:43.033Z,18.67
2016-10-27T06:19:08.576Z,18.68
2016-10-27T06:19:34.195Z,18.73
2016-10-27T06:20:22.085Z,18.68
2016-10-27T06:20:47.639Z,18.65
2016-10-27T06:21:13.223Z,18.7
2016-10-27T06:21:38.785Z,18.68
2016-10-27T06:22:04.450Z,18.68
2016-10-27T06:22:30.006Z,18.62
2016-10-27T06:22:55.564Z,18.58
2016-10-27T06:23:21.127Z,18.72
2016-10-27T06:23:46.813Z,18.61
2016-10-27T06:24:12.400Z,18.65
2016-10-27T06:24:37.958Z,18.67
2016-10-27T06:25:03.548Z,18.62
2016-10-27T06:25:29.090Z,18.67
2016-10-27T06:26:17.002Z,18.7
2016-10-27T06:26:42.562Z,18.58
2016-10-27T06:27:08.120Z,18.65
2016-10-27T06:27:33.762Z,18.67
2016-10-27T06:27:59.330Z,18.72
2016-10-27T06:28:24.845Z,18.67
2016-10-27T06:28:50.399Z,18.65
2016-10-27T06:29:15.969Z,18.7
2016-10-27T06:29:41.568Z,18.72
2016-10-27T06:30:07.168Z,18.72
2016-10-27T06:30:32.709Z,18.7
2016-10-27T06:30:58.274Z,18.76
2016-10-27T06:31:23.936Z,18.68
2016-10-27T06:31:49.488Z,18.72
2016-10-27T06:32:15.060Z,18.68
2016-10-27T06:32:40.701Z,18.7
2016-10-27T06:33:06.250Z,18.67
2016-10-27T06:33:31.840Z,18.72
2016-10-27T06:33:57.390Z,18.67
2016-10-27T06:34:22.947Z,18.67
2016-10-27T06:34:48.532Z,18.73
2016-10-27T06:35:14.107Z,18.7
2016-10-27T06:36:17.336Z,18.65
2016-10-27T06:36:42.882Z,18.74
2016-10-27T06:37:08.429Z,18.7
2016-10-27T06:37:34.063Z,18.65
2016-10-27T06:38:21.877Z,18.67
2016-10-27T06:39:25.060Z,18.68
2016-10-27T06:39:50.631Z,18.68
2016-10-27T06:40:16.199Z,18.68
2016-10-27T06:40:41.750Z,18.76
2016-10-27T06:41:07.308Z,18.68
2016-10-27T06:41:32.871Z,18.68
2016-10-27T06:41:58.440Z,18.72
2016-10-27T06:42:24.199Z,18.74
2016-10-27T06:42:49.791Z,18.65
2016-10-27T06:43:15.376Z,18.74
2016-10-27T06:43:40.932Z,18.68
2016-10-27T06:44:06.479Z,18.67
2016-10-27T06:44:32.036Z,18.7
2016-10-27T06:44:57.618Z,18.73
2016-10-27T06:45:23.192Z,18.72
2016-10-27T06:45:48.888Z,18.76
2016-10-27T06:46:14.442Z,18.73
2016-10-27T06:46:39.986Z,18.73
2016-10-27T06:47:05.586Z,18.79
2016-10-27T06:47:31.218Z,18.68
2016-10-27T06:47:56.766Z,18.72
2016-10-27T06:48:22.324Z,18.73
2016-10-27T06:48:47.884Z,18.79
2016-10-27T06:49:13.432Z,18.76
2016-10-27T06:49:39.021Z,18.7
2016-10-27T06:50:04.636Z,18.76
2016-10-27T06:50:30.165Z,18.77
2016-10-27T06:50:55.708Z,18.77
2016-10-27T06:51:21.278Z,18.79
2016-10-27T06:51:46.846Z,18.73
2016-10-27T06:52:12.397Z,18.82
2016-10-27T06:52:37.960Z,18.77
2016-10-27T06:53:03.504Z,18.77
2016-10-27T06:53:29.075Z,18.82
2016-10-27T06:53:54.626Z,18.82
2016-10-27T06:54:20.199Z,18.77
2016-10-27T06:54:45.911Z,18.83
2016-10-27T06:55:11.479Z,18.8
2016-10-27T06:55:37.034Z,18.76
2016-10-27T06:56:02.583Z,18.79
2016-10-27T06:56:28.159Z,18.77
2016-10-27T06:56:53.724Z,18.79
2016-10-27T06:57:19.360Z,18.8
2016-10-27T06:57:44.900Z,18.73
2016-10-27T06:58:10.463Z,18.8
2016-10-27T06:58:36.080Z,18.79
2016-10-27T06:59:01.652Z,18.72
2016-10-27T06:59:27.216Z,18.74
2016-10-27T06:59:52.776Z,18.79
2016-10-27T07:00:18.353Z,18.77
2016-10-27T07:00:43.927Z,18.83
2016-10-27T07:01:09.492Z,18.77
2016-10-27T07:01:35.063Z,18.8
2016-10-27T07:02:00.739Z,18.74
2016-10-27T07:02:26.286Z,18.79
2016-10-27T07:02:51.837Z,18.76
2016-10-27T07:03:17.432Z,18.8
2016-10-27T07:03:42.994Z,18.79
2016-10-27T07:04:08.554Z,18.74
2016-10-27T07:04:34.112Z,18.79
2016-10-27T07:04:59.690Z,18.77
2016-10-27T07:05:25.253Z,18.74
2016-10-27T07:06:18.350Z,18.79
2016-10-27T07:06:43.879Z,18.82
2016-10-27T07:07:09.444Z,18.76
2016-10-27T07:07:35.003Z,18.74
2016-10-27T07:08:00.611Z,18.74
2016-10-27T07:08:26.160Z,18.82
2016-10-27T07:08:51.702Z,18.73
2016-10-27T07:09:17.265Z,18.74
2016-10-27T07:09:42.820Z,18.83
2016-10-27T07:10:08.339Z,18.74
2016-10-27T07:10:33.880Z,18.77
2016-10-27T07:10:59.436Z,18.74
2016-10-27T07:11:25.001Z,18.8
2016-10-27T07:11:50.587Z,18.77
2016-10-27T07:12:16.142Z,18.8
2016-10-27T07:12:41.764Z,18.83
2016-10-27T07:13:07.312Z,18.86
2016-10-27T07:13:32.888Z,18.84
2016-10-27T07:13:58.437Z,18.83
2016-10-27T07:14:23.991Z,18.9
2016-10-27T07:14:49.538Z,18.87
2016-10-27T07:15:15.120Z,18.83
2016-10-27T07:15:40.663Z,18.86
2016-10-27T07:16:06.244Z,18.9
2016-10-27T07:16:31.909Z,18.9
2016-10-27T07:16:57.458Z,18.84
2016-10-27T07:17:23.083Z,18.8
2016-10-27T07:17:48.727Z,18.87
2016-10-27T07:18:14.303Z,18.84
2016-10-27T07:18:39.861Z,18.87
2016-10-27T07:19:05.408Z,18.8
2016-10-27T07:19:31.006Z,18.9
2016-10-27T07:19:56.567Z,18.87
2016-10-27T07:20:22.114Z,18.83
2016-10-27T07:20:47.671Z,18.86
2016-10-27T07:21:13.242Z,18.79
2016-10-27T07:21:38.789Z,18.91
2016-10-27T07:22:04.491Z,18.84
2016-10-27T07:22:30.044Z,18.82
2016-10-27T07:23:23.056Z,18.84
2016-10-27T07:23:48.622Z,18.84
2016-10-27T07:24:14.209Z,18.83
2016-10-27T07:25:07.194Z,18.92
2016-10-27T07:25:32.758Z,18.86
2016-10-27T07:25:58.336Z,18.91
2016-10-27T07:26:23.886Z,18.97
2016-10-27T07:26:49.443Z,18.9
2016-10-27T07:27:15.006Z,18.86
2016-10-27T07:27:40.573Z,18.87
2016-10-27T07:28:06.196Z,18.97
2016-10-27T07:28:31.763Z,18.92
2016-10-27T07:28:57.419Z,18.91
2016-10-27T07:29:22.953Z,18.94
2016-10-27T07:29:48.514Z,18.92
2016-10-27T07:30:14.117Z,18.94
2016-10-27T07:30:39.687Z,18.92
2016-10-27T07:31:05.250Z,18.92
2016-10-27T07:31:30.912Z,18.86
2016-10-27T07:31:56.464Z,18.95
2016-10-27T07:32:22.028Z,18.94
2016-10-27T07:32:47.574Z,18.97
2016-10-27T07:33:13.196Z,18.94
2016-10-27T07:33:38.765Z,18.98
2016-10-27T07:34:04.561Z,18.92
2016-10-27T07:34:30.148Z,18.86
2016-10-27T07:34:55.712Z,18.95
2016-10-27T07:35:21.295Z,18.9
2016-10-27T07:35:46.908Z,18.94
2016-10-27T07:36:12.478Z,19.01
2016-10-27T07:36:38.029Z,19.01
2016-10-27T07:37:03.745Z,18.98
2016-10-27T07:37:29.315Z,18.91
2016-10-27T07:37:54.891Z,18.97
2016-10-27T07:38:20.489Z,18.98
2016-10-27T07:38:46.081Z,18.98
2016-10-27T07:39:11.661Z,19.02
2016-10-27T07:39:37.232Z,18.91
2016-10-27T07:40:02.934Z,18.94
2016-10-27T07:40:28.506Z,18.97
2016-10-27T07:40:54.069Z,19.02
2016-10-27T07:41:19.726Z,19.01
2016-10-27T07:41:45.326Z,18.98
2016-10-27T07:42:10.889Z,19.02
2016-10-27T07:42:36.519Z,18.97
2016-10-27T07:43:02.097Z,19.02
2016-10-27T07:43:27.672Z,19.02
2016-10-27T07:43:53.348Z,18.97
2016-10-27T07:44:18.895Z,18.97
2016-10-27T07:44:44.483Z,19.05
2016-10-27T07:45:10.057Z,18.95
2016-10-27T07:45:35.623Z,19.01
2016-10-27T07:46:01.172Z,19.08
2016-10-27T07:46:26.719Z,19.02
2016-10-27T07:46:52.299Z,19.01
2016-10-27T07:47:17.869Z,19.05
2016-10-27T07:48:21.110Z,19.06
2016-10-27T07:49:19.163Z,19.06
2016-10-27T07:49:44.722Z,19.06
2016-10-27T07:50:10.288Z,19.01
2016-10-27T07:50:35.825Z,19.01
2016-10-27T07:51:01.453Z,19.01
2016-10-27T07:51:27.036Z,19.02
2016-10-27T07:51:52.595Z,19.08
2016-10-27T07:52:18.208Z,19.05
2016-10-27T07:53:06.198Z,19.02
2016-10-27T07:53:31.696Z,19.01
2016-10-27T07:53:57.289Z,19.06
2016-10-27T07:54:22.861Z,19.06
2016-10-27T07:55:30.721Z,19.08
2016-10-27T07:57:33.303Z,19.08
2016-10-27T07:57:58.858Z,19.08
2016-10-27T07:58:24.438Z,19.1
2016-10-27T07:58:50.090Z,19.1
2016-10-27T07:59:15.666Z,19.1
2016-10-27T07:59:41.329Z,19.13
2016-10-27T08:00:06.888Z,19.11
2016-10-27T08:00:32.443Z,19.1
2016-10-27T08:00:58.028Z,19.15
2016-10-27T08:01:23.606Z,19.1
2016-10-27T08:01:49.216Z,19.08
2016-10-27T08:02:14.791Z,19.06
2016-10-27T08:02:40.384Z,19.13
2016-10-27T08:03:05.936Z,19.1
2016-10-27T08:03:31.485Z,19.14
2016-10-27T08:03:57.099Z,19.13
2016-10-27T08:05:05.422Z,19.21
2016-10-27T08:05:30.968Z,19.13
2016-10-27T08:05:56.530Z,19.14
2016-10-27T08:06:22.114Z,19.14
2016-10-27T08:06:47.681Z,19.05
2016-10-27T08:07:13.230Z,19.17
2016-10-27T08:07:38.800Z,19.14
2016-10-27T08:08:04.349Z,19.08
2016-10-27T08:08:29.931Z,19.14
2016-10-27T08:08:55.517Z,19.18
2016-10-27T08:09:21.069Z,19.08
2016-10-27T08:09:46.615Z,19.17
2016-10-27T08:10:12.182Z,19.18
2016-10-27T08:10:37.758Z,19.2
2016-10-27T08:11:03.433Z,19.14
2016-10-27T08:11:29.155Z,19.1
2016-10-27T08:11:54.715Z,19.21
2016-10-27T08:12:20.270Z,19.13
2016-10-27T08:12:45.819Z,19.21
2016-10-27T08:13:11.358Z,19.08
2016-10-27T08:13:36.976Z,19.1
2016-10-27T08:14:02.539Z,19.13
2016-10-27T08:14:28.115Z,19.17
2016-10-27T08:14:53.678Z,19.17
2016-10-27T08:15:19.278Z,19.15
2016-10-27T08:15:44.836Z,19.11
2016-10-27T08:16:10.416Z,19.18
2016-10-27T08:16:36.099Z,19.17
2016-10-27T08:17:01.638Z,19.21
2016-10-27T08:17:27.301Z,19.18
2016-10-27T08:17:52.879Z,19.24
2016-10-27T08:18:18.452Z,19.18
2016-10-27T08:18:43.980Z,19.18
2016-10-27T08:19:09.531Z,19.18
2016-10-27T08:19:35.099Z,19.21
2016-10-27T08:20:00.677Z,19.15
2016-10-27T08:20:26.218Z,19.13
2016-10-27T08:20:51.773Z,19.18
2016-10-27T08:21:17.316Z,19.18
2016-10-27T08:21:42.859Z,19.11
2016-10-27T08:22:08.421Z,19.2
2016-10-27T08:22:33.976Z,19.21
2016-10-27T08:22:59.547Z,19.13
2016-10-27T08:23:25.222Z,19.18
2016-10-27T08:23:50.866Z,19.24
2016-10-27T08:24:16.426Z,19.2
2016-10-27T08:24:41.987Z,19.25
2016-10-27T08:25:07.541Z,19.2
2016-10-27T08:25:33.093Z,19.18
2016-10-27T08:25:58.693Z,19.15
2016-10-27T08:26:24.252Z,19.13
2016-10-27T08:26:49.804Z,19.15
2016-10-27T08:27:15.455Z,19.18
2016-10-27T08:27:41.046Z,19.2
2016-10-27T08:28:06.611Z,19.14
2016-10-27T08:28:32.249Z,19.24
2016-10-27T08:28:57.818Z,19.17
2016-10-27T08:29:23.382Z,19.23
2016-10-27T08:29:48.938Z,19.23
2016-10-27T08:30:14.533Z,19.21
2016-10-27T08:30:40.194Z,19.17
2016-10-27T08:31:05.852Z,19.18
2016-10-27T08:31:31.418Z,19.18
2016-10-27T08:31:56.995Z,19.24
2016-10-27T08:32:22.544Z,19.2
2016-10-27T08:32:48.141Z,19.2
2016-10-27T08:33:13.788Z,19.23
2016-10-27T08:33:39.421Z,19.2
2016-10-27T08:34:04.995Z,19.24
2016-10-27T08:34:30.696Z,19.24
2016-10-27T08:34:56.277Z,19.24
2016-10-27T08:35:21.853Z,19.24
2016-10-27T08:35:47.477Z,19.28
2016-10-27T08:36:13.051Z,19.24
2016-10-27T08:36:38.629Z,19.23
2016-10-27T08:37:04.284Z,19.21
2016-10-27T08:37:29.927Z,19.24
2016-10-27T08:37:55.535Z,19.23
2016-10-27T08:38:21.085Z,19.23
2016-10-27T08:38:46.707Z,19.28
2016-10-27T08:39:12.256Z,19.25
2016-10-27T08:39:37.827Z,19.31
2016-10-27T08:40:03.395Z,19.21
2016-10-27T08:40:28.932Z,19.28
2016-10-27T08:40:54.482Z,19.25
2016-10-27T08:41:20.040Z,19.25
2016-10-27T08:41:45.599Z,19.21
2016-10-27T08:42:11.154Z,19.31
2016-10-27T08:42:36.726Z,19.23
2016-10-27T08:43:02.317Z,19.31
2016-10-27T08:43:27.883Z,19.28
2016-10-27T08:43:53.454Z,19.31
2016-10-27T08:44:19.039Z,19.32
2016-10-27T08:44:44.576Z,19.28
2016-10-27T08:45:10.139Z,19.28
2016-10-27T08:45:35.696Z,19.33
2016-10-27T08:46:01.249Z,19.35
2016-10-27T08:46:26.808Z,19.25
2016-10-27T08:46:52.362Z,19.36
2016-10-27T08:47:17.918Z,19.33
2016-10-27T08:47:43.474Z,19.31
2016-10-27T08:48:09.028Z,19.35
2016-10-27T08:48:34.672Z,19.36
2016-10-27T08:49:00.240Z,19.29
2016-10-27T08:49:25.823Z,19.28
2016-10-27T08:49:51.565Z,19.36
2016-10-27T08:50:17.107Z,19.35
2016-10-27T08:50:42.658Z,19.33
2016-10-27T08:51:08.213Z,19.32
2016-10-27T08:51:33.897Z,19.33
2016-10-27T08:52:26.967Z,19.33
2016-10-27T08:52:52.517Z,19.43
2016-10-27T08:53:18.072Z,19.31
2016-10-27T08:53:43.712Z,19.36